createdAt,value
2019-03-04T00:01:30.915Z,62.63
2019-03-04T00:03:56.805Z,58.53
2019-03-04T00:06:22.791Z,62.83
2019-03-04T00:08:48.614Z,63.23
2019-03-04T00:11:14.600Z,65.87
2019-03-04T00:13:40.569Z,67.60
2019-03-04T00:16:06.538Z,63.50
2019-03-04T00:18:32.416Z,65.37
2019-03-04T00:20:58.473Z,65.63
2019-03-04T00:23:24.613Z,66.20
2019-03-04T00:25:51.838Z,67.67
2019-03-04T00:28:18.027Z,66.43
2019-03-04T00:30:43.863Z,63.03
2019-03-04T00:33:09.719Z,65.70
2019-03-04T00:35:35.855Z,62.87
2019-03-04T00:38:01.974Z,57.20
2019-03-04T00:40:27.950Z,57.10
2019-03-04T00:42:53.989Z,50.90
2019-03-04T00:45:19.913Z,59.13
2019-03-04T00:47:45.963Z,48.20
2019-03-04T00:50:16.587Z,50.80
2019-03-04T00:52:42.512Z,51.00
2019-03-04T00:55:09.674Z,52.37
2019-03-04T00:57:35.617Z,55.73
2019-03-04T01:00:03.518Z,52.87
2019-03-04T01:02:29.475Z,57.73
2019-03-04T01:04:55.534Z,63.40
2019-03-04T01:07:21.518Z,53.77
2019-03-04T01:09:47.352Z,56.10
2019-03-04T01:12:13.182Z,59.47
2019-03-04T01:14:39.028Z,56.60
2019-03-04T01:17:04.980Z,56.23
2019-03-04T01:19:30.902Z,63.80
2019-03-04T01:21:56.710Z,56.53
2019-03-04T01:24:22.552Z,56.00
2019-03-04T01:26:48.585Z,56.83
2019-03-04T01:29:14.409Z,54.10
2019-03-04T01:31:40.246Z,55.20
2019-03-04T01:34:06.222Z,54.23
2019-03-04T01:36:32.192Z,58.07
2019-03-04T01:38:58.065Z,49.10
2019-03-04T01:41:27.259Z,50.07
2019-03-04T01:43:53.210Z,51.17
2019-03-04T01:46:19.064Z,50.60
2019-03-04T01:48:45.036Z,47.53
2019-03-04T01:51:11.003Z,50.17
2019-03-04T01:53:36.882Z,45.63
2019-03-04T01:56:02.931Z,45.07
2019-03-04T01:58:28.840Z,42.77
2019-03-04T02:00:54.701Z,48.50
2019-03-04T02:03:20.645Z,47.67
2019-03-04T02:05:46.512Z,47.53
2019-03-04T02:08:12.645Z,49.33
2019-03-04T02:10:38.594Z,47.97
2019-03-04T02:13:04.566Z,46.50
2019-03-04T02:15:30.541Z,53.17
2019-03-04T02:17:56.503Z,51.70
2019-03-04T02:20:22.474Z,46.17
2019-03-04T02:22:48.324Z,47.63
2019-03-04T02:25:17.310Z,43.00
2019-03-04T02:27:48.666Z,42.87
2019-03-04T02:30:23.297Z,46.47
2019-03-04T02:32:49.323Z,43.13
2019-03-04T02:35:15.670Z,38.33
2019-03-04T02:37:41.670Z,38.83
2019-03-04T02:40:07.747Z,39.03
2019-03-04T02:42:33.585Z,40.70
2019-03-04T02:44:59.567Z,39.20
2019-03-04T02:47:25.407Z,40.10
2019-03-04T02:49:51.270Z,40.37
2019-03-04T02:52:17.157Z,38.07
2019-03-04T02:54:43.094Z,38.10
2019-03-04T02:57:08.978Z,38.13
2019-03-04T02:59:34.835Z,35.87
2019-03-04T03:02:00.758Z,35.70
2019-03-04T03:04:26.767Z,37.97
2019-03-04T03:06:52.719Z,35.90
2019-03-04T03:09:18.554Z,37.27
2019-03-04T03:11:44.666Z,33.10
2019-03-04T03:14:10.618Z,38.37
2019-03-04T03:16:36.549Z,33.20
2019-03-04T03:19:02.522Z,36.47
2019-03-04T03:21:28.477Z,36.33
2019-03-04T03:23:54.311Z,34.73
2019-03-04T03:26:20.273Z,33.67
2019-03-04T03:28:46.210Z,33.70
2019-03-04T03:31:12.082Z,36.50
2019-03-04T03:33:38.022Z,37.77
2019-03-04T03:36:04.016Z,40.63
2019-03-04T03:38:29.963Z,40.17
2019-03-04T03:40:55.789Z,39.13
2019-03-04T03:43:22.005Z,37.07
2019-03-04T03:45:48.017Z,40.87
2019-03-04T03:48:13.927Z,35.03
2019-03-04T03:50:39.839Z,37.97
2019-03-04T03:53:05.809Z,36.60
2019-03-04T03:55:31.750Z,34.67
2019-03-04T03:57:57.699Z,39.90
2019-03-04T04:00:24.450Z,32.83
2019-03-04T04:02:50.545Z,39.87
2019-03-04T04:05:16.516Z,31.63
2019-03-04T04:07:42.596Z,36.10
2019-03-04T04:10:14.557Z,34.13
2019-03-04T04:12:40.688Z,36.47
2019-03-04T04:15:09.098Z,31.97
2019-03-04T04:17:34.997Z,32.17
2019-03-04T04:20:00.954Z,40.33
2019-03-04T04:22:27.015Z,34.27
2019-03-04T04:24:53.107Z,31.70
2019-03-04T04:27:18.932Z,32.60
2019-03-04T04:29:44.869Z,31.67
2019-03-04T04:32:10.773Z,36.50
2019-03-04T04:34:36.737Z,30.73
2019-03-04T04:37:02.756Z,32.10
2019-03-04T04:39:28.648Z,30.77
2019-03-04T04:41:54.497Z,33.20
2019-03-04T04:44:20.518Z,34.43
2019-03-04T04:46:48.478Z,32.30
2019-03-04T04:49:14.353Z,35.40
2019-03-04T04:51:40.351Z,35.47
2019-03-04T04:54:06.204Z,35.47
2019-03-04T04:56:32.127Z,32.27
2019-03-04T04:58:58.002Z,33.20
2019-03-04T05:01:23.855Z,34.97
2019-03-04T05:03:49.692Z,31.73
2019-03-04T05:06:15.654Z,35.73
2019-03-04T05:08:41.618Z,35.27
2019-03-04T05:11:07.579Z,31.53
2019-03-04T05:13:33.515Z,36.53
2019-03-04T05:15:59.528Z,32.80
2019-03-04T05:18:25.516Z,33.50
2019-03-04T05:20:51.340Z,31.40
2019-03-04T05:23:17.199Z,32.83
2019-03-04T05:25:43.150Z,32.20
2019-03-04T05:28:08.982Z,32.83
2019-03-04T05:30:34.905Z,34.17
2019-03-04T05:33:00.978Z,32.90
2019-03-04T05:35:26.830Z,32.73
2019-03-04T05:37:52.765Z,32.20
2019-03-04T05:40:19.991Z,32.73
2019-03-04T05:42:46.050Z,30.70
2019-03-04T05:45:13.728Z,33.60
2019-03-04T05:47:39.919Z,32.20
2019-03-04T05:50:09.183Z,29.83
2019-03-04T05:52:35.040Z,28.83
2019-03-04T05:55:01.064Z,29.97
2019-03-04T05:57:26.895Z,30.77
2019-03-04T05:59:52.897Z,32.03
2019-03-04T06:02:18.800Z,31.07
2019-03-04T06:04:44.721Z,30.20
2019-03-04T06:07:12.491Z,29.07
2019-03-04T06:09:38.696Z,30.93
2019-03-04T06:12:04.740Z,29.90
2019-03-04T06:14:30.815Z,33.47
2019-03-04T06:16:56.652Z,32.03
2019-03-04T06:19:22.635Z,30.37
2019-03-04T06:21:48.716Z,32.17
2019-03-04T06:24:14.625Z,29.97
2019-03-04T06:26:40.457Z,34.23
2019-03-04T06:29:06.951Z,29.37
2019-03-04T06:31:32.870Z,30.87
2019-03-04T06:33:58.689Z,33.47
2019-03-04T06:36:24.692Z,29.47
2019-03-04T06:38:50.620Z,31.63
2019-03-04T06:41:16.550Z,32.23
2019-03-04T06:43:44.095Z,32.30
2019-03-04T06:46:10.132Z,33.33
2019-03-04T06:48:36.042Z,33.77
2019-03-04T06:51:05.711Z,30.53
2019-03-04T06:53:52.969Z,30.00
2019-03-04T06:56:22.655Z,28.03
2019-03-04T06:59:16.823Z,32.63
2019-03-04T07:01:49.333Z,29.07
2019-03-04T07:04:19.032Z,29.93
2019-03-04T07:06:45.003Z,31.90
2019-03-04T07:09:11.060Z,29.97
2019-03-04T07:11:37.154Z,35.17
2019-03-04T07:14:03.572Z,45.97
2019-03-04T07:16:29.505Z,32.50
2019-03-04T07:18:55.477Z,30.73
2019-03-04T07:21:21.549Z,33.37
2019-03-04T07:23:47.459Z,30.57
2019-03-04T07:26:13.399Z,32.87
2019-03-04T07:28:39.322Z,33.60
2019-03-04T07:31:05.402Z,32.13
2019-03-04T07:33:31.364Z,31.13
2019-03-04T07:35:57.321Z,29.97
2019-03-04T07:38:42.061Z,26.13
2019-03-04T07:41:07.893Z,25.67
2019-03-04T07:43:33.783Z,25.80
2019-03-04T07:45:59.838Z,28.40
2019-03-04T07:48:25.809Z,23.83
2019-03-04T07:50:51.858Z,25.83
2019-03-04T07:53:19.173Z,23.27
2019-03-04T07:55:45.367Z,29.20
2019-03-04T07:58:11.236Z,27.13
2019-03-04T08:00:37.047Z,31.03
2019-03-04T08:03:03.160Z,27.27
2019-03-04T08:05:29.098Z,42.47
2019-03-04T08:08:06.466Z,50.77
2019-03-04T08:10:41.945Z,50.77
2019-03-04T08:13:32.432Z,59.93
2019-03-04T08:15:58.511Z,67.23
2019-03-04T08:18:24.313Z,71.33
2019-03-04T08:20:50.295Z,62.23
2019-03-04T08:23:16.242Z,65.50
2019-03-04T08:25:42.087Z,67.17
2019-03-04T08:28:09.334Z,73.27
2019-03-04T08:30:35.434Z,74.73
2019-03-04T08:33:01.364Z,69.60
2019-03-04T08:35:27.474Z,78.53
2019-03-04T08:37:53.530Z,59.30
2019-03-04T08:40:19.572Z,53.70
2019-03-04T08:42:45.688Z,42.57
2019-03-04T08:45:17.122Z,48.03
2019-03-04T08:47:42.998Z,40.13
2019-03-04T08:50:11.296Z,40.17
2019-03-04T08:52:37.505Z,39.17
2019-03-04T08:55:05.986Z,36.10
2019-03-04T08:57:32.097Z,38.43
2019-03-04T08:59:58.035Z,41.53
2019-03-04T09:02:24.095Z,45.13
2019-03-04T09:04:49.985Z,48.20
2019-03-04T09:07:15.816Z,43.53
2019-03-04T09:09:41.770Z,41.93
2019-03-04T09:12:07.816Z,46.90
2019-03-04T09:14:33.788Z,45.40
2019-03-04T09:16:59.876Z,46.23
2019-03-04T09:19:25.724Z,47.47
2019-03-04T09:21:51.565Z,47.10
2019-03-04T09:24:17.657Z,43.57
2019-03-04T09:26:43.628Z,45.57
2019-03-04T09:29:09.569Z,53.87
2019-03-04T09:31:35.513Z,55.80
2019-03-04T09:34:01.412Z,66.53
2019-03-04T09:36:27.349Z,73.03
2019-03-04T09:38:53.178Z,69.53
2019-03-04T09:41:19.189Z,77.03
2019-03-04T09:43:45.098Z,63.97
2019-03-04T09:46:11.043Z,64.50
2019-03-04T09:48:37.089Z,73.90
2019-03-04T09:51:03.113Z,77.93
2019-03-04T09:53:38.877Z,71.50
2019-03-04T09:55:56.843Z,61.43
2019-03-04T09:58:22.716Z,65.13
2019-03-04T10:00:58.451Z,69.40
2019-03-04T10:03:40.351Z,62.57
2019-03-04T10:06:18.657Z,66.33
2019-03-04T10:09:05.016Z,69.57
2019-03-04T10:11:47.059Z,68.17
2019-03-04T10:14:25.860Z,66.37
2019-03-04T10:16:55.579Z,53.97
2019-03-04T10:19:37.257Z,61.50
2019-03-04T10:22:18.931Z,57.00
2019-03-04T10:24:54.334Z,62.80
2019-03-04T10:27:27.039Z,69.43
2019-03-04T10:30:05.703Z,90.53
2019-03-04T10:32:56.277Z,111.67
2019-03-04T10:35:51.827Z,125.97
2019-03-04T10:38:22.777Z,136.30
2019-03-04T10:41:20.247Z,123.37
2019-03-04T10:43:49.934Z,133.87
2019-03-04T10:46:36.349Z,135.20
2019-03-04T10:49:02.513Z,141.20
2019-03-04T10:51:31.987Z,141.30
2019-03-04T10:53:58.027Z,128.13
2019-03-04T10:56:24.070Z,136.23
2019-03-04T10:58:49.918Z,142.17
2019-03-04T11:01:15.760Z,134.83
2019-03-04T11:03:41.820Z,126.10
2019-03-04T11:06:07.915Z,135.37
2019-03-04T11:08:33.762Z,139.60
2019-03-04T11:10:59.944Z,135.30
2019-03-04T11:13:25.895Z,129.40
2019-03-04T11:15:51.728Z,127.80
2019-03-04T11:18:17.622Z,130.57
2019-03-04T11:20:43.569Z,131.80
2019-03-04T11:23:09.705Z,138.73
2019-03-04T11:25:36.042Z,144.27
2019-03-04T11:28:01.966Z,132.87
2019-03-04T11:30:29.837Z,141.13
2019-03-04T11:32:55.946Z,135.37
2019-03-04T11:35:21.785Z,139.53
2019-03-04T11:37:47.824Z,138.40
2019-03-04T11:40:22.084Z,135.40
2019-03-04T11:42:47.912Z,145.83
2019-03-04T11:45:14.753Z,148.40
2019-03-04T11:47:40.709Z,143.67
2019-03-04T11:50:10.144Z,151.67
2019-03-04T11:52:36.028Z,146.13
2019-03-04T11:55:02.119Z,141.90
2019-03-04T11:57:28.127Z,145.77
2019-03-04T11:59:53.970Z,138.37
2019-03-04T12:02:20.194Z,140.70
2019-03-04T12:04:46.057Z,151.80
2019-03-04T12:07:12.034Z,150.83
2019-03-04T12:09:37.944Z,153.07
2019-03-04T12:12:03.981Z,156.80
2019-03-04T12:14:30.030Z,157.60
2019-03-04T12:16:56.066Z,164.93
2019-03-04T12:19:22.004Z,155.40
2019-03-04T12:21:48.055Z,176.43
2019-03-04T12:24:14.041Z,164.43
2019-03-04T12:26:41.868Z,173.27
2019-03-04T12:29:07.726Z,160.50
2019-03-04T12:31:35.584Z,154.80
2019-03-04T12:34:01.526Z,172.30
2019-03-04T12:36:27.418Z,161.10
2019-03-04T12:38:53.276Z,157.93
2019-03-04T12:41:19.237Z,160.00
2019-03-04T12:43:45.208Z,152.87
2019-03-04T12:46:11.144Z,153.43
2019-03-04T12:48:37.133Z,153.17
2019-03-04T12:51:03.194Z,151.50
2019-03-04T12:53:37.008Z,154.00
2019-03-04T12:55:57.290Z,152.73
2019-03-04T12:58:23.341Z,164.73
2019-03-04T13:00:49.431Z,159.97
2019-03-04T13:03:20.021Z,157.93
2019-03-04T13:05:46.053Z,150.17
2019-03-04T13:08:12.015Z,162.37
2019-03-04T13:10:38.103Z,157.27
2019-03-04T13:13:04.165Z,165.60
2019-03-04T13:15:36.932Z,157.90
2019-03-04T13:18:11.099Z,157.80
2019-03-04T13:20:37.321Z,156.97
2019-03-04T13:23:04.053Z,158.40
2019-03-04T13:25:29.943Z,156.23
2019-03-04T13:27:55.903Z,148.83
2019-03-04T13:30:23.558Z,160.20
2019-03-04T13:32:49.987Z,164.43
2019-03-04T13:35:24.781Z,169.87
2019-03-04T13:37:49.923Z,154.63
2019-03-04T13:40:15.992Z,149.00
2019-03-04T13:42:41.935Z,157.70
2019-03-04T13:45:13.719Z,154.73
2019-03-04T13:47:39.873Z,148.93
2019-03-04T13:50:14.717Z,145.87
2019-03-04T13:52:40.785Z,149.63
2019-03-04T13:55:07.169Z,157.37
2019-03-04T13:57:36.735Z,154.77
2019-03-04T14:00:06.401Z,148.70
2019-03-04T14:02:32.376Z,142.77
2019-03-04T14:04:58.312Z,148.60
2019-03-04T14:07:24.229Z,155.57
2019-03-04T14:09:50.157Z,146.63
2019-03-04T14:12:16.267Z,147.83
2019-03-04T14:14:42.181Z,138.20
2019-03-04T14:17:08.239Z,144.93
2019-03-04T14:19:34.136Z,142.20
2019-03-04T14:22:00.395Z,144.43
2019-03-04T14:24:26.444Z,139.60
2019-03-04T14:26:52.458Z,137.63
2019-03-04T14:29:18.903Z,138.23
2019-03-04T14:31:44.979Z,138.70
2019-03-04T14:34:11.513Z,145.50
2019-03-04T14:36:37.495Z,134.43
2019-03-04T14:39:06.851Z,134.77
2019-03-04T14:41:32.995Z,131.97
2019-03-04T14:43:58.965Z,140.33
2019-03-04T14:46:25.028Z,132.10
2019-03-04T14:48:51.192Z,138.70
2019-03-04T14:51:18.945Z,152.03
2019-03-04T14:53:44.997Z,165.10
2019-03-04T14:56:11.226Z,154.50
2019-03-04T14:58:37.115Z,168.97
2019-03-04T15:01:03.446Z,163.47
2019-03-04T15:03:29.371Z,162.57
2019-03-04T15:05:55.309Z,169.17
2019-03-04T15:08:21.267Z,161.83
2019-03-04T15:10:47.375Z,169.83
2019-03-04T15:13:13.263Z,167.83
2019-03-04T15:15:39.201Z,160.20
2019-03-04T15:18:05.321Z,143.80
2019-03-04T15:20:33.501Z,151.33
2019-03-04T15:22:59.835Z,154.77
2019-03-04T15:25:31.289Z,158.37
2019-03-04T15:28:13.010Z,149.77
2019-03-04T15:30:40.726Z,150.00
2019-03-04T15:33:06.801Z,139.13
2019-03-04T15:35:32.680Z,134.73
2019-03-04T15:37:58.577Z,136.00
2019-03-04T15:40:26.683Z,152.13
2019-03-04T15:42:52.179Z,134.87
2019-03-04T15:45:18.280Z,138.33
2019-03-04T15:47:44.216Z,139.13
2019-03-04T15:50:10.945Z,149.03
2019-03-04T15:52:37.492Z,143.03
2019-03-04T15:55:06.362Z,146.00
2019-03-04T15:57:32.323Z,122.80
2019-03-04T15:59:58.377Z,133.77
2019-03-04T16:02:24.611Z,173.37
2019-03-04T16:04:50.624Z,176.30
2019-03-04T16:07:16.736Z,170.33
2019-03-04T16:09:42.821Z,168.70
2019-03-04T16:12:10.767Z,141.33
2019-03-04T16:14:36.642Z,124.63
2019-03-04T16:17:02.706Z,105.17
2019-03-04T16:19:28.628Z,121.60
2019-03-04T16:21:54.713Z,97.23
2019-03-04T16:24:20.784Z,95.77
2019-03-04T16:26:46.834Z,89.67
2019-03-04T16:29:12.807Z,82.93
2019-03-04T16:31:38.776Z,93.70
2019-03-04T16:34:04.854Z,101.40
2019-03-04T16:36:30.937Z,98.70
2019-03-04T16:38:56.759Z,101.50
2019-03-04T16:41:22.754Z,100.77
2019-03-04T16:43:48.939Z,94.83
2019-03-04T16:46:15.616Z,97.27
2019-03-04T16:48:41.698Z,105.03
2019-03-04T16:51:07.580Z,111.53
2019-03-04T16:53:33.901Z,108.17
2019-03-04T16:55:59.869Z,112.70
2019-03-04T16:58:26.130Z,103.73
2019-03-04T17:00:52.179Z,110.83
2019-03-04T17:03:18.228Z,101.23
2019-03-04T17:05:44.305Z,110.97
2019-03-04T17:08:10.455Z,107.00
2019-03-04T17:10:36.626Z,110.53
2019-03-04T17:13:02.898Z,114.70
2019-03-04T17:15:28.921Z,117.43
2019-03-04T17:17:54.778Z,112.73
2019-03-04T17:20:20.864Z,112.73
2019-03-04T17:22:47.288Z,107.13
2019-03-04T17:25:15.455Z,108.23
2019-03-04T17:27:41.992Z,102.13
2019-03-04T17:30:10.751Z,111.37
2019-03-04T17:32:37.039Z,107.37
2019-03-04T17:35:05.188Z,108.07
2019-03-04T17:37:31.265Z,113.10
2019-03-04T17:39:57.322Z,117.13
2019-03-04T17:42:23.163Z,117.30
2019-03-04T17:44:49.159Z,120.23
2019-03-04T17:47:15.129Z,118.57
2019-03-04T17:49:41.250Z,107.20
2019-03-04T17:52:07.370Z,108.33
2019-03-04T17:54:33.215Z,111.47
2019-03-04T17:56:59.116Z,121.00
2019-03-04T17:59:28.864Z,132.63
2019-03-04T18:01:55.821Z,120.87
2019-03-04T18:04:21.754Z,118.07
2019-03-04T18:06:48.297Z,130.40
2019-03-04T18:09:14.124Z,123.10
2019-03-04T18:11:40.129Z,132.47
2019-03-04T18:14:06.057Z,149.07
2019-03-04T18:16:32.616Z,140.20
2019-03-04T18:18:58.702Z,126.50
2019-03-04T18:21:24.834Z,144.10
2019-03-04T18:23:50.719Z,145.00
2019-03-04T18:26:20.309Z,145.23
2019-03-04T18:29:04.182Z,154.53
2019-03-04T18:31:48.870Z,152.90
2019-03-04T18:34:45.727Z,169.03
2019-03-04T18:37:30.740Z,165.63
2019-03-04T18:40:12.384Z,192.67
2019-03-04T18:42:42.024Z,190.57
2019-03-04T18:45:29.987Z,187.90
2019-03-04T18:48:14.873Z,208.17
2019-03-04T18:50:41.134Z,203.57
2019-03-04T18:53:07.411Z,176.57
2019-03-04T18:55:33.330Z,200.73
2019-03-04T18:57:59.288Z,203.27
2019-03-04T19:00:26.029Z,211.10
2019-03-04T19:02:51.968Z,216.87
2019-03-04T19:05:18.009Z,228.53
2019-03-04T19:07:44.164Z,250.90
2019-03-04T19:10:11.153Z,268.63
2019-03-04T19:12:37.012Z,261.13
2019-03-04T19:15:06.479Z,231.53
2019-03-04T19:17:33.791Z,223.40
2019-03-04T19:20:00.312Z,253.20
2019-03-04T19:22:26.348Z,243.73
2019-03-04T19:24:52.166Z,223.37
2019-03-04T19:27:18.058Z,230.60
2019-03-04T19:29:44.011Z,217.90
2019-03-04T19:32:09.847Z,225.85
2019-03-04T19:34:35.886Z,235.27
2019-03-04T19:37:01.978Z,206.40
2019-03-04T19:42:33.518Z,174.47
2019-03-04T19:44:59.442Z,160.83
2019-03-04T19:47:25.382Z,161.07
2019-03-04T19:49:51.299Z,163.10
2019-03-04T19:52:17.465Z,152.73
2019-03-04T19:54:43.444Z,135.88
2019-03-04T19:57:09.640Z,149.50
2019-03-04T19:59:35.741Z,150.40
2019-03-04T20:02:02.247Z,159.43
2019-03-04T20:04:28.413Z,144.43
2019-03-04T20:06:54.338Z,140.40
2019-03-04T20:09:21.918Z,140.37
2019-03-04T20:11:47.929Z,145.30
2019-03-04T20:14:13.877Z,149.53
2019-03-04T20:16:39.852Z,138.43
2019-03-04T20:19:05.942Z,139.97
2019-03-04T20:21:31.974Z,154.13
2019-03-04T20:23:57.831Z,149.60
2019-03-04T20:26:23.895Z,144.63
2019-03-04T20:28:49.886Z,144.23
2019-03-04T20:31:15.982Z,139.47
2019-03-04T20:33:41.959Z,134.67
2019-03-04T20:36:07.954Z,129.63
2019-03-04T20:38:37.388Z,137.57
2019-03-04T20:41:03.445Z,134.07
2019-03-04T20:43:29.515Z,143.57
2019-03-04T20:45:55.343Z,139.43
2019-03-04T20:48:21.328Z,126.63
2019-03-04T20:50:47.188Z,128.27
2019-03-04T20:53:13.243Z,129.47
2019-03-04T20:55:39.242Z,126.30
2019-03-04T20:58:05.168Z,131.57
2019-03-04T21:00:35.439Z,131.70
2019-03-04T21:03:07.351Z,131.97
2019-03-04T21:05:35.532Z,126.17
2019-03-04T21:08:02.016Z,111.90
2019-03-04T21:10:27.960Z,118.30
2019-03-04T21:12:56.011Z,110.40
2019-03-04T21:15:22.396Z,108.30
2019-03-04T21:17:48.448Z,98.33
2019-03-04T21:20:15.654Z,88.97
2019-03-04T21:22:44.285Z,92.83
2019-03-04T21:25:43.158Z,89.80
2019-03-04T21:28:28.147Z,86.93
2019-03-04T21:31:16.450Z,89.80
2019-03-04T21:34:06.048Z,78.93
2019-03-04T21:36:41.918Z,89.17
2019-03-04T21:39:10.171Z,82.27
2019-03-04T21:41:51.816Z,93.03
2019-03-04T21:44:44.572Z,89.50
2019-03-04T21:47:26.719Z,94.30
2019-03-04T21:49:52.784Z,102.77
2019-03-04T21:52:31.378Z,97.73
2019-03-04T21:54:57.319Z,108.57
2019-03-04T21:57:32.915Z,105.17
2019-03-04T21:59:59.148Z,109.23
2019-03-04T22:02:36.386Z,122.93
2019-03-04T22:05:11.701Z,114.73
2019-03-04T22:07:37.700Z,110.93
2019-03-04T22:10:07.260Z,108.73
2019-03-04T22:12:33.211Z,102.63
2019-03-04T22:14:59.436Z,98.63
2019-03-04T22:17:25.464Z,95.73
2019-03-04T22:19:51.364Z,97.87
2019-03-04T22:22:17.591Z,109.83
2019-03-04T22:24:43.525Z,102.50
2019-03-04T22:27:09.537Z,87.57
2019-03-04T22:29:35.436Z,94.17
2019-03-04T22:32:01.659Z,86.50
2019-03-04T22:34:27.529Z,85.20
2019-03-04T22:36:53.585Z,86.63
2019-03-04T22:39:19.534Z,80.10
2019-03-04T22:41:45.381Z,79.43
2019-03-04T22:44:11.342Z,78.37
2019-03-04T22:46:37.804Z,84.13
2019-03-04T22:49:03.783Z,80.80
2019-03-04T22:51:29.808Z,93.07
2019-03-04T22:53:56.037Z,83.90
2019-03-04T22:56:22.011Z,89.90
2019-03-04T22:58:48.239Z,87.40
2019-03-04T23:01:19.801Z,76.13
2019-03-04T23:03:45.872Z,74.73
2019-03-04T23:06:21.959Z,77.80
2019-03-04T23:08:47.896Z,73.13
2019-03-04T23:11:13.844Z,67.57
2019-03-04T23:13:52.502Z,69.77
2019-03-04T23:16:24.627Z,62.23
2019-03-04T23:18:50.611Z,60.77
2019-03-04T23:21:16.548Z,58.63
2019-03-04T23:23:42.464Z,51.87
2019-03-04T23:26:08.551Z,53.97
2019-03-04T23:28:34.487Z,52.73
2019-03-04T23:31:01.915Z,50.90
2019-03-04T23:33:27.869Z,49.17
2019-03-04T23:35:53.816Z,47.00
2019-03-04T23:38:19.802Z,47.50
2019-03-04T23:40:45.647Z,52.43
2019-03-04T23:43:11.710Z,52.30
2019-03-04T23:45:37.616Z,56.07
2019-03-04T23:48:03.666Z,53.47
2019-03-04T23:50:29.603Z,48.43
2019-03-04T23:52:55.639Z,50.53
2019-03-04T23:55:21.620Z,57.73
2019-03-04T23:57:47.549Z,48.07
